Main page
METAR-TAF:

METAR-TAF

Airports :

Salamanca Airport

Salamanca, Spain

latitude: 40-57N, longitude: 005-30W, elevation: 793 m

Current weather observation

The report was made 19 minutes ago, at 21:00 UTC
Wind 3 kt from the West/Southwest
Temperature 9°C
Humidity 66%
Pressure 1015 hPa
Visibility 10 km or more
no clouds below 1500 m and no cumulonimbus

METAR: LESA 242100Z AUTO 25003KT CAVOK 09/03 Q1015

Time: 23:19 (21:19 UTC)

Forecast

The report was made 1 hour and 19 minutes ago, at 20:00 UTC
Forecast valid from 24 at 21 UTC to 25 at 21 UTC
Wind 5 kt from variable directions
Visibility 10 km or more
no clouds below 1500 m and no cumulonimbus
Becoming
from 25 at 12 UTC to 25 at 14 UTC
Wind 10 kt from the Northwest

TAF: LESA 242000Z 2421/2521 VRB05KT CAVOK TX17/2515Z TN06/2506Z BECMG 2512/2514 31010KT

Weather observations and forecasts of more than 4000 airports (METAR and TAF reports).

The available stations are represented by yellow and red dots on the map.

Hover mouse over dot to see the name of the station.

Then click to see weather observations and forecasts.

To change the map : click on the green buttons with a black cross to zoom in, on the green button with a dash to zoom out, or on the green arrows for adjacent maps.


METAR-TAF: